Terminal Aerodrome Forecast
Issued by NWS Cleveland, OH

Home | Current Version | Previous Version | Graphics & Text | Print | Product List | Glossary On
Versions: 1 2 3 4 5 6 7 8 9 10 11 12 13 14 15 16 17 18 19 20 21 22 23 24 25
646
FTUS41 KCLE 281442 AAA
TAFCLE
TAF AMD
KCLE 281442Z 2815/2918 21003KT P6SM BKN200
     FM281600 30006KT P6SM SCT040 BKN200
     FM282200 36008KT P6SM FEW040 BKN150
     FM290800 36004KT 5SM BR SCT040
     FM291400 02008KT P6SM SCT040=

USA.gov is the U.S. government's official web portal to all federal, state and local government web resources and services.